sensor_id;sensor_type;location;lat;lon;timestamp;P1;durP1;ratioP1;P2;durP2;ratioP2
5555;SDS011;2801;50.972;7.856;2022-10-16T00:01:39;122.60;;;9.13;;
5555;SDS011;2801;50.972;7.856;2022-10-16T00:04:06;97.95;;;8.82;;
5555;SDS011;2801;50.972;7.856;2022-10-16T00:06:33;58.80;;;8.15;;
5555;SDS011;2801;50.972;7.856;2022-10-16T00:09:00;48.75;;;8.23;;
5555;SDS011;2801;50.972;7.856;2022-10-16T00:11:31;24.63;;;8.05;;
5555;SDS011;2801;50.972;7.856;2022-10-16T00:14:03;20.85;;;8.00;;
5555;SDS011;2801;50.972;7.856;2022-10-16T00:16:39;17.90;;;7.65;;
5555;SDS011;2801;50.972;7.856;2022-10-16T00:19:06;28.63;;;8.60;;
5555;SDS011;2801;50.972;7.856;2022-10-16T00:21:33;27.27;;;8.40;;
5555;SDS011;2801;50.972;7.856;2022-10-16T00:24:02;19.00;;;7.93;;
5555;SDS011;2801;50.972;7.856;2022-10-16T00:26:33;23.33;;;8.85;;
5555;SDS011;2801;50.972;7.856;2022-10-16T00:29:02;17.45;;;8.07;;
5555;SDS011;2801;50.972;7.856;2022-10-16T00:31:29;19.80;;;8.63;;
5555;SDS011;2801;50.972;7.856;2022-10-16T00:33:56;24.77;;;8.13;;
5555;SDS011;2801;50.972;7.856;2022-10-16T00:36:24;22.98;;;8.95;;
5555;SDS011;2801;50.972;7.856;2022-10-16T00:38:53;21.52;;;8.27;;
5555;SDS011;2801;50.972;7.856;2022-10-16T00:41:22;20.40;;;8.40;;
5555;SDS011;2801;50.972;7.856;2022-10-16T00:43:53;20.13;;;8.57;;
5555;SDS011;2801;50.972;7.856;2022-10-16T00:49:10;18.58;;;7.45;;
5555;SDS011;2801;50.972;7.856;2022-10-16T00:51:43;17.17;;;8.18;;
5555;SDS011;2801;50.972;7.856;2022-10-16T00:54:14;15.38;;;7.60;;
5555;SDS011;2801;50.972;7.856;2022-10-16T00:56:48;19.40;;;8.45;;
5555;SDS011;2801;50.972;7.856;2022-10-16T00:59:27;26.90;;;9.02;;
5555;SDS011;2801;50.972;7.856;2022-10-16T01:01:58;20.80;;;8.07;;
5555;SDS011;2801;50.972;7.856;2022-10-16T01:04:26;17.48;;;8.18;;
5555;SDS011;2801;50.972;7.856;2022-10-16T01:20:59;21.02;;;7.57;;
5555;SDS011;2801;50.972;7.856;2022-10-16T01:23:48;21.17;;;7.28;;
5555;SDS011;2801;50.972;7.856;2022-10-16T01:26:37;17.05;;;7.03;;
5555;SDS011;2801;50.972;7.856;2022-10-16T01:29:34;21.13;;;7.22;;
5555;SDS011;2801;50.972;7.856;2022-10-16T01:32:31;19.80;;;6.35;;
5555;SDS011;2801;50.972;7.856;2022-10-16T01:38:34;14.35;;;6.07;;
5555;SDS011;2801;50.972;7.856;2022-10-16T01:41:09;14.57;;;6.15;;
5555;SDS011;2801;50.972;7.856;2022-10-16T01:43:57;14.20;;;5.85;;
5555;SDS011;2801;50.972;7.856;2022-10-16T01:46:32;14.27;;;5.53;;
5555;SDS011;2801;50.972;7.856;2022-10-16T01:49:03;15.68;;;5.70;;
5555;SDS011;2801;50.972;7.856;2022-10-16T01:51:34;13.95;;;5.45;;
5555;SDS011;2801;50.972;7.856;2022-10-16T01:54:03;16.88;;;6.03;;
5555;SDS011;2801;50.972;7.856;2022-10-16T01:56:34;13.70;;;6.38;;
5555;SDS011;2801;50.972;7.856;2022-10-16T01:59:11;18.55;;;6.13;;
5555;SDS011;2801;50.972;7.856;2022-10-16T02:01:45;15.98;;;6.72;;
5555;SDS011;2801;50.972;7.856;2022-10-16T02:04:21;17.80;;;6.65;;
5555;SDS011;2801;50.972;7.856;2022-10-16T02:06:58;20.48;;;7.28;;
5555;SDS011;2801;50.972;7.856;2022-10-16T02:09:25;18.15;;;7.53;;
5555;SDS011;2801;50.972;7.856;2022-10-16T02:11:53;17.80;;;7.13;;
5555;SDS011;2801;50.972;7.856;2022-10-16T02:14:26;22.27;;;7.43;;
5555;SDS011;2801;50.972;7.856;2022-10-16T02:16:53;20.88;;;7.88;;
5555;SDS011;2801;50.972;7.856;2022-10-16T02:19:19;19.85;;;7.95;;
5555;SDS011;2801;50.972;7.856;2022-10-16T02:24:26;26.02;;;8.98;;
5555;SDS011;2801;50.972;7.856;2022-10-16T02:29:36;27.25;;;9.00;;
5555;SDS011;2801;50.972;7.856;2022-10-16T02:32:11;31.08;;;8.27;;
5555;SDS011;2801;50.972;7.856;2022-10-16T02:34:42;28.30;;;8.63;;
5555;SDS011;2801;50.972;7.856;2022-10-16T02:37:11;25.73;;;8.75;;
5555;SDS011;2801;50.972;7.856;2022-10-16T02:39:39;29.23;;;8.40;;
5555;SDS011;2801;50.972;7.856;2022-10-16T02:42:13;29.20;;;8.73;;
5555;SDS011;2801;50.972;7.856;2022-10-16T02:44:43;32.92;;;9.27;;
5555;SDS011;2801;50.972;7.856;2022-10-16T02:47:10;26.45;;;8.48;;
5555;SDS011;2801;50.972;7.856;2022-10-16T02:49:42;30.73;;;8.95;;
5555;SDS011;2801;50.972;7.856;2022-10-16T02:52:09;22.00;;;7.93;;
5555;SDS011;2801;50.972;7.856;2022-10-16T02:54:36;25.65;;;8.57;;
5555;SDS011;2801;50.972;7.856;2022-10-16T02:57:03;22.27;;;7.90;;
5555;SDS011;2801;50.972;7.856;2022-10-16T02:59:29;22.23;;;7.65;;
5555;SDS011;2801;50.972;7.856;2022-10-16T03:01:56;21.70;;;8.07;;
5555;SDS011;2801;50.972;7.856;2022-10-16T03:04:23;25.15;;;7.97;;
5555;SDS011;2801;50.972;7.856;2022-10-16T03:06:49;22.48;;;7.78;;
5555;SDS011;2801;50.972;7.856;2022-10-16T03:09:16;21.73;;;8.15;;
5555;SDS011;2801;50.972;7.856;2022-10-16T03:11:43;20.10;;;7.78;;
5555;SDS011;2801;50.972;7.856;2022-10-16T03:14:10;18.10;;;7.13;;
5555;SDS011;2801;50.972;7.856;2022-10-16T03:16:36;17.92;;;7.63;;
5555;SDS011;2801;50.972;7.856;2022-10-16T03:19:03;19.23;;;7.43;;
5555;SDS011;2801;50.972;7.856;2022-10-16T03:21:30;19.50;;;6.80;;
5555;SDS011;2801;50.972;7.856;2022-10-16T03:23:57;18.13;;;6.65;;
5555;SDS011;2801;50.972;7.856;2022-10-16T03:26:23;20.23;;;6.82;;
5555;SDS011;2801;50.972;7.856;2022-10-16T03:28:50;18.60;;;6.18;;
5555;SDS011;2801;50.972;7.856;2022-10-16T03:31:17;16.60;;;6.72;;
5555;SDS011;2801;50.972;7.856;2022-10-16T03:33:44;20.25;;;6.75;;
5555;SDS011;2801;50.972;7.856;2022-10-16T03:36:10;18.17;;;7.05;;
5555;SDS011;2801;50.972;7.856;2022-10-16T03:38:37;15.65;;;6.80;;
5555;SDS011;2801;50.972;7.856;2022-10-16T03:41:04;12.85;;;5.97;;
5555;SDS011;2801;50.972;7.856;2022-10-16T03:43:31;17.15;;;6.35;;
5555;SDS011;2801;50.972;7.856;2022-10-16T03:45:58;16.80;;;6.28;;
5555;SDS011;2801;50.972;7.856;2022-10-16T03:48:24;15.18;;;6.22;;
5555;SDS011;2801;50.972;7.856;2022-10-16T03:50:51;13.30;;;6.22;;
5555;SDS011;2801;50.972;7.856;2022-10-16T03:53:18;14.00;;;6.10;;
5555;SDS011;2801;50.972;7.856;2022-10-16T03:55:45;10.20;;;5.13;;
5555;SDS011;2801;50.972;7.856;2022-10-16T03:58:11;13.15;;;5.22;;
5555;SDS011;2801;50.972;7.856;2022-10-16T04:00:42;11.25;;;4.90;;
5555;SDS011;2801;50.972;7.856;2022-10-16T04:03:10;12.27;;;5.25;;
5555;SDS011;2801;50.972;7.856;2022-10-16T04:05:38;10.45;;;4.88;;
5555;SDS011;2801;50.972;7.856;2022-10-16T04:08:05;10.77;;;4.43;;
5555;SDS011;2801;50.972;7.856;2022-10-16T04:10:32;11.00;;;4.63;;
5555;SDS011;2801;50.972;7.856;2022-10-16T04:12:59;13.48;;;4.55;;
5555;SDS011;2801;50.972;7.856;2022-10-16T04:15:26;8.07;;;4.00;;
5555;SDS011;2801;50.972;7.856;2022-10-16T04:17:53;8.70;;;4.85;;
5555;SDS011;2801;50.972;7.856;2022-10-16T04:20:19;9.93;;;4.25;;
5555;SDS011;2801;50.972;7.856;2022-10-16T04:22:46;8.40;;;4.70;;
5555;SDS011;2801;50.972;7.856;2022-10-16T04:25:13;9.23;;;4.47;;
5555;SDS011;2801;50.972;7.856;2022-10-16T04:27:40;9.10;;;4.63;;
5555;SDS011;2801;50.972;7.856;2022-10-16T04:30:11;8.05;;;4.50;;
5555;SDS011;2801;50.972;7.856;2022-10-16T04:32:39;10.00;;;4.80;;
5555;SDS011;2801;50.972;7.856;2022-10-16T04:35:06;9.45;;;4.13;;
5555;SDS011;2801;50.972;7.856;2022-10-16T04:37:33;9.07;;;4.50;;
5555;SDS011;2801;50.972;7.856;2022-10-16T04:40:00;6.43;;;3.63;;
5555;SDS011;2801;50.972;7.856;2022-10-16T04:42:27;7.15;;;3.75;;
5555;SDS011;2801;50.972;7.856;2022-10-16T04:44:54;8.60;;;3.47;;
5555;SDS011;2801;50.972;7.856;2022-10-16T04:47:20;7.18;;;3.70;;
5555;SDS011;2801;50.972;7.856;2022-10-16T04:49:47;7.57;;;3.45;;
5555;SDS011;2801;50.972;7.856;2022-10-16T04:52:14;6.63;;;3.35;;
5555;SDS011;2801;50.972;7.856;2022-10-16T04:54:41;5.97;;;3.00;;
5555;SDS011;2801;50.972;7.856;2022-10-16T04:57:08;8.02;;;3.30;;
5555;SDS011;2801;50.972;7.856;2022-10-16T04:59:34;5.63;;;3.17;;
5555;SDS011;2801;50.972;7.856;2022-10-16T05:02:01;6.00;;;3.28;;
5555;SDS011;2801;50.972;7.856;2022-10-16T05:04:28;5.43;;;2.90;;
5555;SDS011;2801;50.972;7.856;2022-10-16T05:06:55;7.45;;;3.42;;
5555;SDS011;2801;50.972;7.856;2022-10-16T05:09:22;5.82;;;3.35;;
5555;SDS011;2801;50.972;7.856;2022-10-16T05:11:49;6.13;;;2.97;;
5555;SDS011;2801;50.972;7.856;2022-10-16T05:14:15;7.25;;;3.13;;
5555;SDS011;2801;50.972;7.856;2022-10-16T05:16:42;7.97;;;3.55;;
5555;SDS011;2801;50.972;7.856;2022-10-16T05:19:09;6.60;;;3.38;;
5555;SDS011;2801;50.972;7.856;2022-10-16T05:21:53;6.97;;;3.53;;
5555;SDS011;2801;50.972;7.856;2022-10-16T05:24:20;9.02;;;3.60;;
5555;SDS011;2801;50.972;7.856;2022-10-16T05:26:47;5.80;;;3.50;;
5555;SDS011;2801;50.972;7.856;2022-10-16T05:29:14;6.38;;;3.67;;
5555;SDS011;2801;50.972;7.856;2022-10-16T05:31:41;6.28;;;3.60;;
5555;SDS011;2801;50.972;7.856;2022-10-16T05:34:07;7.35;;;4.00;;
5555;SDS011;2801;50.972;7.856;2022-10-16T05:36:34;8.70;;;3.80;;
5555;SDS011;2801;50.972;7.856;2022-10-16T05:39:01;10.85;;;4.72;;
5555;SDS011;2801;50.972;7.856;2022-10-16T05:41:28;11.48;;;4.03;;
5555;SDS011;2801;50.972;7.856;2022-10-16T05:43:55;10.20;;;4.90;;
5555;SDS011;2801;50.972;7.856;2022-10-16T05:46:22;9.65;;;4.63;;
5555;SDS011;2801;50.972;7.856;2022-10-16T05:48:51;8.38;;;4.32;;
5555;SDS011;2801;50.972;7.856;2022-10-16T05:51:19;12.00;;;4.40;;
5555;SDS011;2801;50.972;7.856;2022-10-16T05:53:46;10.10;;;4.63;;
5555;SDS011;2801;50.972;7.856;2022-10-16T05:56:13;13.55;;;4.57;;
5555;SDS011;2801;50.972;7.856;2022-10-16T05:58:39;10.82;;;4.57;;
5555;SDS011;2801;50.972;7.856;2022-10-16T06:01:09;11.10;;;4.95;;
5555;SDS011;2801;50.972;7.856;2022-10-16T06:03:40;8.43;;;4.40;;
5555;SDS011;2801;50.972;7.856;2022-10-16T06:06:14;7.43;;;3.72;;
5555;SDS011;2801;50.972;7.856;2022-10-16T06:08:44;11.50;;;3.90;;
5555;SDS011;2801;50.972;7.856;2022-10-16T06:11:14;9.10;;;4.40;;
5555;SDS011;2801;50.972;7.856;2022-10-16T06:13:54;5.80;;;3.60;;
5555;SDS011;2801;50.972;7.856;2022-10-16T06:16:24;11.88;;;4.55;;
5555;SDS011;2801;50.972;7.856;2022-10-16T06:18:52;9.10;;;4.25;;
5555;SDS011;2801;50.972;7.856;2022-10-16T06:21:23;8.73;;;3.30;;
5555;SDS011;2801;50.972;7.856;2022-10-16T06:23:51;7.97;;;3.97;;
5555;SDS011;2801;50.972;7.856;2022-10-16T06:26:20;9.32;;;4.22;;
5555;SDS011;2801;50.972;7.856;2022-10-16T06:28:49;8.02;;;3.83;;
5555;SDS011;2801;50.972;7.856;2022-10-16T06:31:16;6.85;;;3.65;;
5555;SDS011;2801;50.972;7.856;2022-10-16T06:33:44;9.60;;;3.83;;
5555;SDS011;2801;50.972;7.856;2022-10-16T06:36:15;9.80;;;3.78;;
5555;SDS011;2801;50.972;7.856;2022-10-16T06:38:43;8.90;;;3.75;;
5555;SDS011;2801;50.972;7.856;2022-10-16T06:41:11;8.90;;;3.25;;
5555;SDS011;2801;50.972;7.856;2022-10-16T06:43:41;6.32;;;3.15;;
5555;SDS011;2801;50.972;7.856;2022-10-16T06:46:09;7.25;;;3.25;;
5555;SDS011;2801;50.972;7.856;2022-10-16T06:48:38;8.55;;;3.08;;
5555;SDS011;2801;50.972;7.856;2022-10-16T06:53:37;6.03;;;2.85;;
5555;SDS011;2801;50.972;7.856;2022-10-16T06:56:27;7.68;;;2.85;;
5555;SDS011;2801;50.972;7.856;2022-10-16T06:58:56;7.78;;;3.05;;
5555;SDS011;2801;50.972;7.856;2022-10-16T07:01:23;8.85;;;3.13;;
5555;SDS011;2801;50.972;7.856;2022-10-16T07:03:51;7.82;;;3.15;;
5555;SDS011;2801;50.972;7.856;2022-10-16T07:06:19;10.35;;;3.20;;
5555;SDS011;2801;50.972;7.856;2022-10-16T07:08:48;5.32;;;3.03;;
5555;SDS011;2801;50.972;7.856;2022-10-16T07:11:17;5.28;;;2.53;;
5555;SDS011;2801;50.972;7.856;2022-10-16T07:13:48;5.55;;;3.05;;
5555;SDS011;2801;50.972;7.856;2022-10-16T07:16:20;6.18;;;2.80;;
5555;SDS011;2801;50.972;7.856;2022-10-16T07:18:56;4.65;;;2.70;;
5555;SDS011;2801;50.972;7.856;2022-10-16T07:21:30;7.78;;;2.72;;
5555;SDS011;2801;50.972;7.856;2022-10-16T07:24:03;6.90;;;3.10;;
5555;SDS011;2801;50.972;7.856;2022-10-16T07:26:38;6.28;;;2.90;;
5555;SDS011;2801;50.972;7.856;2022-10-16T07:29:06;4.20;;;2.60;;
5555;SDS011;2801;50.972;7.856;2022-10-16T07:31:39;14.68;;;7.60;;
5555;SDS011;2801;50.972;7.856;2022-10-16T07:34:06;5.82;;;2.70;;
5555;SDS011;2801;50.972;7.856;2022-10-16T07:36:36;5.95;;;2.58;;
5555;SDS011;2801;50.972;7.856;2022-10-16T07:39:03;5.03;;;2.58;;
5555;SDS011;2801;50.972;7.856;2022-10-16T07:41:30;6.05;;;2.03;;
5555;SDS011;2801;50.972;7.856;2022-10-16T07:43:58;5.85;;;2.50;;
5555;SDS011;2801;50.972;7.856;2022-10-16T07:46:26;4.28;;;2.17;;
5555;SDS011;2801;50.972;7.856;2022-10-16T07:48:54;3.47;;;2.00;;
5555;SDS011;2801;50.972;7.856;2022-10-16T07:51:22;3.45;;;2.15;;
5555;SDS011;2801;50.972;7.856;2022-10-16T07:53:50;4.07;;;2.40;;
5555;SDS011;2801;50.972;7.856;2022-10-16T07:56:19;3.00;;;1.92;;
5555;SDS011;2801;50.972;7.856;2022-10-16T07:58:47;2.58;;;1.83;;
5555;SDS011;2801;50.972;7.856;2022-10-16T08:01:16;4.50;;;2.00;;
5555;SDS011;2801;50.972;7.856;2022-10-16T08:03:45;4.45;;;1.90;;
5555;SDS011;2801;50.972;7.856;2022-10-16T08:06:19;2.42;;;1.80;;
5555;SDS011;2801;50.972;7.856;2022-10-16T08:08:53;3.13;;;1.60;;
5555;SDS011;2801;50.972;7.856;2022-10-16T08:11:21;3.92;;;1.60;;
5555;SDS011;2801;50.972;7.856;2022-10-16T08:13:48;2.30;;;1.67;;
5555;SDS011;2801;50.972;7.856;2022-10-16T08:16:15;1.80;;;1.55;;
5555;SDS011;2801;50.972;7.856;2022-10-16T08:18:43;7.85;;;2.38;;
5555;SDS011;2801;50.972;7.856;2022-10-16T08:21:12;71.90;;;14.90;;
5555;SDS011;2801;50.972;7.856;2022-10-16T08:23:46;5.65;;;2.42;;
5555;SDS011;2801;50.972;7.856;2022-10-16T08:26:22;4.32;;;2.13;;
5555;SDS011;2801;50.972;7.856;2022-10-16T08:28:49;2.20;;;1.50;;
5555;SDS011;2801;50.972;7.856;2022-10-16T08:31:17;2.78;;;1.50;;
5555;SDS011;2801;50.972;7.856;2022-10-16T08:33:44;2.20;;;1.35;;
5555;SDS011;2801;50.972;7.856;2022-10-16T08:36:13;1.88;;;1.35;;
5555;SDS011;2801;50.972;7.856;2022-10-16T08:38:41;2.83;;;1.40;;
5555;SDS011;2801;50.972;7.856;2022-10-16T08:47:34;1.90;;;1.40;;
5555;SDS011;2801;50.972;7.856;2022-10-16T08:50:12;1.77;;;1.10;;
5555;SDS011;2801;50.972;7.856;2022-10-16T08:52:44;2.55;;;1.40;;
5555;SDS011;2801;50.972;7.856;2022-10-16T08:55:17;2.75;;;1.20;;
5555;SDS011;2801;50.972;7.856;2022-10-16T08:58:13;1.10;;;1.00;;
5555;SDS011;2801;50.972;7.856;2022-10-16T09:00:47;1.17;;;1.08;;
5555;SDS011;2801;50.972;7.856;2022-10-16T09:06:39;0.85;;;0.85;;
5555;SDS011;2801;50.972;7.856;2022-10-16T09:14:37;1.90;;;1.17;;
5555;SDS011;2801;50.972;7.856;2022-10-16T09:17:45;1.00;;;0.70;;
5555;SDS011;2801;50.972;7.856;2022-10-16T09:23:36;1.38;;;0.88;;
5555;SDS011;2801;50.972;7.856;2022-10-16T09:26:04;1.33;;;0.90;;
5555;SDS011;2801;50.972;7.856;2022-10-16T09:28:36;1.20;;;0.90;;
5555;SDS011;2801;50.972;7.856;2022-10-16T09:31:04;0.93;;;0.90;;
5555;SDS011;2801;50.972;7.856;2022-10-16T09:33:35;1.00;;;0.82;;
5555;SDS011;2801;50.972;7.856;2022-10-16T09:36:08;1.63;;;0.95;;
5555;SDS011;2801;50.972;7.856;2022-10-16T09:38:36;1.25;;;1.08;;
5555;SDS011;2801;50.972;7.856;2022-10-16T09:41:11;0.80;;;0.77;;
5555;SDS011;2801;50.972;7.856;2022-10-16T09:46:25;1.30;;;0.75;;
5555;SDS011;2801;50.972;7.856;2022-10-16T09:48:57;2.30;;;0.75;;
5555;SDS011;2801;50.972;7.856;2022-10-16T09:51:50;2.30;;;0.85;;
5555;SDS011;2801;50.972;7.856;2022-10-16T09:54:29;2.00;;;0.68;;
5555;SDS011;2801;50.972;7.856;2022-10-16T09:57:06;0.90;;;0.63;;
5555;SDS011;2801;50.972;7.856;2022-10-16T09:59:45;1.67;;;0.70;;
5555;SDS011;2801;50.972;7.856;2022-10-16T10:02:36;2.45;;;0.90;;
5555;SDS011;2801;50.972;7.856;2022-10-16T10:05:05;0.93;;;0.60;;
5555;SDS011;2801;50.972;7.856;2022-10-16T10:07:52;0.70;;;0.63;;
5555;SDS011;2801;50.972;7.856;2022-10-16T10:10:26;0.60;;;0.60;;
5555;SDS011;2801;50.972;7.856;2022-10-16T10:12:56;1.45;;;0.70;;
5555;SDS011;2801;50.972;7.856;2022-10-16T10:15:24;0.80;;;0.55;;
5555;SDS011;2801;50.972;7.856;2022-10-16T10:17:54;2.33;;;0.93;;
5555;SDS011;2801;50.972;7.856;2022-10-16T10:20:30;0.80;;;0.70;;
5555;SDS011;2801;50.972;7.856;2022-10-16T10:23:01;2.78;;;0.70;;
5555;SDS011;2801;50.972;7.856;2022-10-16T10:26:10;1.00;;;0.60;;
5555;SDS011;2801;50.972;7.856;2022-10-16T10:34:27;2.70;;;0.60;;
5555;SDS011;2801;50.972;7.856;2022-10-16T10:37:11;1.45;;;0.50;;
5555;SDS011;2801;50.972;7.856;2022-10-16T10:39:55;0.50;;;0.50;;
5555;SDS011;2801;50.972;7.856;2022-10-16T10:42:45;1.10;;;0.98;;
5555;SDS011;2801;50.972;7.856;2022-10-16T10:45:44;1.25;;;0.60;;
5555;SDS011;2801;50.972;7.856;2022-10-16T10:48:20;0.85;;;0.60;;
5555;SDS011;2801;50.972;7.856;2022-10-16T10:51:17;1.58;;;0.50;;
5555;SDS011;2801;50.972;7.856;2022-10-16T10:54:20;2.83;;;0.60;;
5555;SDS011;2801;50.972;7.856;2022-10-16T10:57:09;1.60;;;0.60;;
5555;SDS011;2801;50.972;7.856;2022-10-16T11:05:38;0.63;;;0.40;;
5555;SDS011;2801;50.972;7.856;2022-10-16T11:08:52;1.60;;;0.50;;
5555;SDS011;2801;50.972;7.856;2022-10-16T11:14:04;1.35;;;0.30;;
5555;SDS011;2801;50.972;7.856;2022-10-16T11:16:55;1.15;;;0.22;;
5555;SDS011;2801;50.972;7.856;2022-10-16T11:22:19;2.30;;;0.40;;
5555;SDS011;2801;50.972;7.856;2022-10-16T11:27:49;0.50;;;0.43;;
5555;SDS011;2801;50.972;7.856;2022-10-16T11:33:27;0.40;;;0.40;;
5555;SDS011;2801;50.972;7.856;2022-10-16T11:36:17;0.52;;;0.30;;
5555;SDS011;2801;50.972;7.856;2022-10-16T11:39:04;0.85;;;0.20;;
5555;SDS011;2801;50.972;7.856;2022-10-16T11:41:51;1.55;;;0.40;;
5555;SDS011;2801;50.972;7.856;2022-10-16T11:44:36;0.32;;;0.32;;
5555;SDS011;2801;50.972;7.856;2022-10-16T11:50:32;1.27;;;0.47;;
5555;SDS011;2801;50.972;7.856;2022-10-16T11:53:14;2.13;;;0.40;;
5555;SDS011;2801;50.972;7.856;2022-10-16T11:56:21;0.32;;;0.30;;
5555;SDS011;2801;50.972;7.856;2022-10-16T12:01:52;1.00;;;0.30;;
5555;SDS011;2801;50.972;7.856;2022-10-16T12:04:42;0.73;;;0.30;;
5555;SDS011;2801;50.972;7.856;2022-10-16T12:07:27;1.20;;;0.30;;
5555;SDS011;2801;50.972;7.856;2022-10-16T12:10:22;0.55;;;0.30;;
5555;SDS011;2801;50.972;7.856;2022-10-16T12:12:57;1.23;;;0.30;;
5555;SDS011;2801;50.972;7.856;2022-10-16T12:18:24;2.15;;;0.30;;
5555;SDS011;2801;50.972;7.856;2022-10-16T12:20:57;1.88;;;0.38;;
5555;SDS011;2801;50.972;7.856;2022-10-16T12:23:30;0.82;;;0.30;;
5555;SDS011;2801;50.972;7.856;2022-10-16T12:25:59;1.02;;;0.40;;
5555;SDS011;2801;50.972;7.856;2022-10-16T12:28:29;1.27;;;0.40;;
5555;SDS011;2801;50.972;7.856;2022-10-16T12:31:03;0.63;;;0.40;;
5555;SDS011;2801;50.972;7.856;2022-10-16T12:33:42;4.78;;;0.50;;
5555;SDS011;2801;50.972;7.856;2022-10-16T12:36:30;0.77;;;0.40;;
5555;SDS011;2801;50.972;7.856;2022-10-16T12:39:00;0.45;;;0.45;;
5555;SDS011;2801;50.972;7.856;2022-10-16T12:41:32;0.60;;;0.50;;
5555;SDS011;2801;50.972;7.856;2022-10-16T12:44:03;1.58;;;0.55;;
5555;SDS011;2801;50.972;7.856;2022-10-16T12:49:06;1.75;;;1.02;;
5555;SDS011;2801;50.972;7.856;2022-10-16T12:51:40;0.98;;;0.40;;
5555;SDS011;2801;50.972;7.856;2022-10-16T12:54:12;1.67;;;0.63;;
5555;SDS011;2801;50.972;7.856;2022-10-16T13:16:53;1.65;;;0.50;;
5555;SDS011;2801;50.972;7.856;2022-10-16T13:19:56;1.23;;;0.60;;
5555;SDS011;2801;50.972;7.856;2022-10-16T13:28:27;3.17;;;0.60;;
5555;SDS011;2801;50.972;7.856;2022-10-16T13:30:59;3.15;;;0.70;;
5555;SDS011;2801;50.972;7.856;2022-10-16T13:33:33;1.60;;;0.50;;
5555;SDS011;2801;50.972;7.856;2022-10-16T13:36:06;1.05;;;0.50;;
5555;SDS011;2801;50.972;7.856;2022-10-16T13:38:34;2.35;;;0.70;;
5555;SDS011;2801;50.972;7.856;2022-10-16T13:41:04;0.70;;;0.50;;
5555;SDS011;2801;50.972;7.856;2022-10-16T13:43:43;1.80;;;0.60;;
5555;SDS011;2801;50.972;7.856;2022-10-16T13:46:16;2.25;;;0.60;;
5555;SDS011;2801;50.972;7.856;2022-10-16T13:49:03;2.33;;;0.55;;
5555;SDS011;2801;50.972;7.856;2022-10-16T13:51:38;0.65;;;0.50;;
5555;SDS011;2801;50.972;7.856;2022-10-16T13:54:05;1.77;;;0.50;;
5555;SDS011;2801;50.972;7.856;2022-10-16T13:56:34;2.42;;;0.50;;
5555;SDS011;2801;50.972;7.856;2022-10-16T13:59:23;2.05;;;0.50;;
5555;SDS011;2801;50.972;7.856;2022-10-16T14:01:55;2.38;;;0.65;;
5555;SDS011;2801;50.972;7.856;2022-10-16T14:04:31;1.75;;;0.50;;
5555;SDS011;2801;50.972;7.856;2022-10-16T14:06:59;1.95;;;0.63;;
5555;SDS011;2801;50.972;7.856;2022-10-16T14:09:26;2.00;;;0.60;;
5555;SDS011;2801;50.972;7.856;2022-10-16T14:12:00;0.40;;;0.40;;
5555;SDS011;2801;50.972;7.856;2022-10-16T14:14:35;1.30;;;0.50;;
5555;SDS011;2801;50.972;7.856;2022-10-16T14:17:27;1.75;;;0.50;;
5555;SDS011;2801;50.972;7.856;2022-10-16T14:19:58;1.45;;;0.65;;
5555;SDS011;2801;50.972;7.856;2022-10-16T14:22:36;1.08;;;0.80;;
5555;SDS011;2801;50.972;7.856;2022-10-16T14:27:45;1.60;;;0.50;;
5555;SDS011;2801;50.972;7.856;2022-10-16T14:30:52;5.05;;;1.58;;
5555;SDS011;2801;50.972;7.856;2022-10-16T14:33:23;2.05;;;0.52;;
5555;SDS011;2801;50.972;7.856;2022-10-16T14:36:05;1.50;;;0.65;;
5555;SDS011;2801;50.972;7.856;2022-10-16T14:38:48;1.20;;;0.80;;
5555;SDS011;2801;50.972;7.856;2022-10-16T14:41:29;2.92;;;0.70;;
5555;SDS011;2801;50.972;7.856;2022-10-16T14:44:02;1.15;;;0.60;;
5555;SDS011;2801;50.972;7.856;2022-10-16T14:46:32;2.08;;;0.60;;
5555;SDS011;2801;50.972;7.856;2022-10-16T14:51:38;1.60;;;0.60;;
5555;SDS011;2801;50.972;7.856;2022-10-16T14:54:08;1.73;;;0.50;;
5555;SDS011;2801;50.972;7.856;2022-10-16T14:56:42;1.48;;;0.63;;
5555;SDS011;2801;50.972;7.856;2022-10-16T14:59:28;0.98;;;0.50;;
5555;SDS011;2801;50.972;7.856;2022-10-16T15:02:44;3.30;;;0.80;;
5555;SDS011;2801;50.972;7.856;2022-10-16T15:04:57;1.13;;;0.50;;
5555;SDS011;2801;50.972;7.856;2022-10-16T15:07:28;1.13;;;0.70;;
5555;SDS011;2801;50.972;7.856;2022-10-16T15:09:55;3.17;;;0.80;;
5555;SDS011;2801;50.972;7.856;2022-10-16T15:12:23;2.30;;;0.80;;
5555;SDS011;2801;50.972;7.856;2022-10-16T15:14:49;1.67;;;0.90;;
5555;SDS011;2801;50.972;7.856;2022-10-16T15:17:16;2.55;;;1.25;;
5555;SDS011;2801;50.972;7.856;2022-10-16T15:19:47;4.40;;;1.25;;
5555;SDS011;2801;50.972;7.856;2022-10-16T15:22:14;3.85;;;1.20;;
5555;SDS011;2801;50.972;7.856;2022-10-16T15:24:40;1.60;;;1.00;;
5555;SDS011;2801;50.972;7.856;2022-10-16T15:27:07;2.45;;;1.13;;
5555;SDS011;2801;50.972;7.856;2022-10-16T15:29:34;2.42;;;1.00;;
5555;SDS011;2801;50.972;7.856;2022-10-16T15:32:01;1.55;;;1.02;;
5555;SDS011;2801;50.972;7.856;2022-10-16T15:34:28;3.17;;;1.00;;
5555;SDS011;2801;50.972;7.856;2022-10-16T15:36:55;1.75;;;1.00;;
5555;SDS011;2801;50.972;7.856;2022-10-16T15:39:23;5.78;;;1.13;;
5555;SDS011;2801;50.972;7.856;2022-10-16T15:41:50;4.63;;;0.95;;
5555;SDS011;2801;50.972;7.856;2022-10-16T15:44:19;1.88;;;1.20;;
5555;SDS011;2801;50.972;7.856;2022-10-16T15:46:49;3.30;;;1.45;;
5555;SDS011;2801;50.972;7.856;2022-10-16T15:49:15;2.55;;;1.02;;
5555;SDS011;2801;50.972;7.856;2022-10-16T15:51:42;4.85;;;1.60;;
5555;SDS011;2801;50.972;7.856;2022-10-16T15:54:09;7.22;;;1.90;;
5555;SDS011;2801;50.972;7.856;2022-10-16T15:56:36;4.78;;;1.35;;
5555;SDS011;2801;50.972;7.856;2022-10-16T15:59:03;2.95;;;1.80;;
5555;SDS011;2801;50.972;7.856;2022-10-16T16:01:34;4.25;;;1.35;;
5555;SDS011;2801;50.972;7.856;2022-10-16T16:04:01;5.90;;;0.80;;
5555;SDS011;2801;50.972;7.856;2022-10-16T16:06:40;4.05;;;1.23;;
5555;SDS011;2801;50.972;7.856;2022-10-16T16:09:11;6.45;;;1.60;;
5555;SDS011;2801;50.972;7.856;2022-10-16T16:11:39;2.55;;;0.90;;
5555;SDS011;2801;50.972;7.856;2022-10-16T16:14:07;1.98;;;0.70;;
5555;SDS011;2801;50.972;7.856;2022-10-16T16:16:37;1.65;;;1.10;;
5555;SDS011;2801;50.972;7.856;2022-10-16T16:19:04;4.05;;;1.00;;
5555;SDS011;2801;50.972;7.856;2022-10-16T16:21:36;1.67;;;0.70;;
5555;SDS011;2801;50.972;7.856;2022-10-16T16:24:03;0.80;;;0.60;;
5555;SDS011;2801;50.972;7.856;2022-10-16T16:26:34;4.30;;;0.75;;
5555;SDS011;2801;50.972;7.856;2022-10-16T16:29:03;1.05;;;0.77;;
5555;SDS011;2801;50.972;7.856;2022-10-16T16:31:31;2.88;;;0.80;;
5555;SDS011;2801;50.972;7.856;2022-10-16T16:33:59;1.85;;;0.85;;
5555;SDS011;2801;50.972;7.856;2022-10-16T16:36:26;3.40;;;0.80;;
5555;SDS011;2801;50.972;7.856;2022-10-16T16:38:53;6.78;;;0.80;;
5555;SDS011;2801;50.972;7.856;2022-10-16T16:41:20;1.55;;;0.75;;
5555;SDS011;2801;50.972;7.856;2022-10-16T16:43:52;3.08;;;0.80;;
5555;SDS011;2801;50.972;7.856;2022-10-16T16:46:20;9.50;;;1.15;;
5555;SDS011;2801;50.972;7.856;2022-10-16T16:48:48;3.65;;;0.70;;
5555;SDS011;2801;50.972;7.856;2022-10-16T16:51:16;2.63;;;0.85;;
5555;SDS011;2801;50.972;7.856;2022-10-16T16:53:46;1.15;;;0.73;;
5555;SDS011;2801;50.972;7.856;2022-10-16T16:56:16;5.20;;;1.10;;
5555;SDS011;2801;50.972;7.856;2022-10-16T16:58:45;2.97;;;0.90;;
5555;SDS011;2801;50.972;7.856;2022-10-16T17:01:16;4.03;;;0.95;;
5555;SDS011;2801;50.972;7.856;2022-10-16T17:03:46;2.67;;;0.93;;
5555;SDS011;2801;50.972;7.856;2022-10-16T17:06:16;7.00;;;1.23;;
5555;SDS011;2801;50.972;7.856;2022-10-16T17:08:46;3.75;;;1.33;;
5555;SDS011;2801;50.972;7.856;2022-10-16T17:11:16;2.78;;;1.30;;
5555;SDS011;2801;50.972;7.856;2022-10-16T17:13:54;1.85;;;1.25;;
5555;SDS011;2801;50.972;7.856;2022-10-16T17:16:32;3.28;;;1.40;;
5555;SDS011;2801;50.972;7.856;2022-10-16T17:19:03;3.58;;;1.40;;
5555;SDS011;2801;50.972;7.856;2022-10-16T17:21:36;5.22;;;2.70;;
5555;SDS011;2801;50.972;7.856;2022-10-16T17:24:03;5.55;;;3.03;;
5555;SDS011;2801;50.972;7.856;2022-10-16T17:26:31;6.15;;;3.35;;
5555;SDS011;2801;50.972;7.856;2022-10-16T17:28:59;4.88;;;2.47;;
5555;SDS011;2801;50.972;7.856;2022-10-16T17:31:28;6.18;;;2.20;;
5555;SDS011;2801;50.972;7.856;2022-10-16T17:34:03;3.92;;;2.70;;
5555;SDS011;2801;50.972;7.856;2022-10-16T17:36:34;8.90;;;3.50;;
5555;SDS011;2801;50.972;7.856;2022-10-16T17:39:04;5.68;;;3.25;;